Chas, Argentina
Current Conditions -  °F | °C
As of 3:00 PM on Wednesday 28 Jan 2015 (Local Time) from SAEZ Reporting Station
Light Rain Light Rain  
Wind Chill: 21°   Ceiling: 6000
Heat Index: 21°   Visibility: 5mi
Dew Point: 19°   Wind: 12mph
Humidity: 88%   Direction: 70°ENE
Pressure: 29.8"   Gusts: NA
Location:  35.83°S, 58.54°W
Report Text: SAEZ 281800Z 07010KT 8000 -RA FEW008 SCT032 OVC060 21/19 Q1009
Loading
Personal Weather Stations






























Interactive Weather Map New forecast layout! Learn more

10-Day Weather Forecast

Advertisements
Track Severe Weather on mobile